createdAt,value
2023-05-07T00:02:20.903Z,7.38
2023-05-07T00:04:47.798Z,7.35
2023-05-07T00:07:14.467Z,7.34
2023-05-07T00:09:41.501Z,7.34
2023-05-07T00:12:08.482Z,7.32
2023-05-07T00:14:35.224Z,7.31
2023-05-07T00:17:01.915Z,7.28
2023-05-07T00:19:28.716Z,7.27
2023-05-07T00:21:57.003Z,7.26
2023-05-07T00:24:23.845Z,7.24
2023-05-07T00:26:50.726Z,7.21
2023-05-07T00:29:17.361Z,7.20
2023-05-07T00:31:44.112Z,7.21
2023-05-07T00:34:10.877Z,7.21
2023-05-07T00:36:37.691Z,7.20
2023-05-07T00:39:04.864Z,7.19
2023-05-07T00:41:34.553Z,7.18
2023-05-07T00:44:03.608Z,7.16
2023-05-07T00:46:31.481Z,7.14
2023-05-07T00:48:58.373Z,7.13
2023-05-07T00:51:26.039Z,7.12
2023-05-07T00:53:52.734Z,7.12
2023-05-07T00:56:19.440Z,7.11
2023-05-07T00:58:46.136Z,7.11
2023-05-07T01:01:12.955Z,7.09
2023-05-07T01:03:39.791Z,7.08
2023-05-07T01:06:07.077Z,7.08
2023-05-07T01:08:36.076Z,7.06
2023-05-07T01:11:03.051Z,7.06
2023-05-07T01:13:29.928Z,7.05
2023-05-07T01:15:56.662Z,7.05
2023-05-07T01:18:23.591Z,7.06
2023-05-07T01:20:50.692Z,7.06
2023-05-07T01:23:17.437Z,7.06
2023-05-07T01:25:44.260Z,7.06
2023-05-07T01:28:11.502Z,7.05
2023-05-07T01:30:38.954Z,7.04
2023-05-07T01:33:11.678Z,7.04
2023-05-07T01:35:43.496Z,7.03
2023-05-07T01:39:40.200Z,7.04
2023-05-07T01:42:06.993Z,7.02
2023-05-07T01:44:33.702Z,7.01
2023-05-07T01:47:00.624Z,7.00
2023-05-07T01:49:27.431Z,7.00
2023-05-07T01:51:54.066Z,7.00
2023-05-07T01:54:21.655Z,6.98
2023-05-07T01:56:49.969Z,6.97
2023-05-07T01:59:17.320Z,6.95
2023-05-07T02:01:44.118Z,6.95
2023-05-07T02:04:11.434Z,6.95
2023-05-07T02:06:38.636Z,6.94
2023-05-07T02:09:06.912Z,6.94
2023-05-07T02:11:40.700Z,6.93
2023-05-07T02:14:08.049Z,6.93
2023-05-07T02:16:53.996Z,6.93
2023-05-07T02:19:42.929Z,6.90
2023-05-07T02:22:10.851Z,6.88
2023-05-07T02:24:37.527Z,6.87
2023-05-07T02:27:04.608Z,6.87
2023-05-07T02:29:31.292Z,6.87
2023-05-07T02:31:58.099Z,6.86
2023-05-07T02:34:25.433Z,6.84
2023-05-07T02:36:52.135Z,6.83
2023-05-07T02:39:21.692Z,6.81
2023-05-07T02:41:48.447Z,6.81
2023-05-07T02:44:15.219Z,6.81
2023-05-07T02:46:42.441Z,6.81
2023-05-07T02:49:10.730Z,6.82
2023-05-07T02:51:37.490Z,6.82
2023-05-07T02:54:07.924Z,6.81
2023-05-07T02:56:34.861Z,6.82
2023-05-07T02:59:01.540Z,6.81
2023-05-07T03:01:31.163Z,6.80
2023-05-07T03:04:06.947Z,6.80
2023-05-07T03:06:33.635Z,6.81
2023-05-07T03:09:00.565Z,6.81
2023-05-07T03:11:27.302Z,6.80
2023-05-07T03:13:54.050Z,6.80
2023-05-07T03:16:21.181Z,6.81
2023-05-07T03:18:47.998Z,6.80
2023-05-07T03:21:14.734Z,6.79
2023-05-07T03:23:41.577Z,6.78
2023-05-07T03:26:08.464Z,6.77
2023-05-07T03:28:35.196Z,6.76
2023-05-07T03:31:03.693Z,6.75
2023-05-07T03:33:30.700Z,6.74
2023-05-07T03:35:57.395Z,6.74
2023-05-07T03:38:25.074Z,6.73
2023-05-07T03:40:51.967Z,6.72
2023-05-07T03:43:18.843Z,6.72
2023-05-07T03:45:49.520Z,6.72
2023-05-07T03:48:20.432Z,6.73
2023-05-07T03:50:48.807Z,6.74
2023-05-07T03:53:16.280Z,6.75
2023-05-07T03:55:43.175Z,6.76
2023-05-07T03:58:09.809Z,6.76
2023-05-07T04:00:39.486Z,6.76
2023-05-07T04:03:13.031Z,6.78
2023-05-07T04:05:39.768Z,6.79
2023-05-07T04:08:06.586Z,6.80
2023-05-07T04:10:38.316Z,6.80
2023-05-07T04:13:08.559Z,6.79
2023-05-07T04:15:36.550Z,6.78
2023-05-07T04:18:04.116Z,6.80
2023-05-07T04:20:31.094Z,6.78
2023-05-07T04:23:01.236Z,6.78
2023-05-07T04:25:28.599Z,6.78
2023-05-07T04:28:00.194Z,6.77
2023-05-07T04:30:27.587Z,6.75
2023-05-07T04:32:54.305Z,6.76
2023-05-07T04:35:21.557Z,6.77
2023-05-07T04:37:50.054Z,6.77
2023-05-07T04:40:17.397Z,6.77
2023-05-07T04:42:44.487Z,6.78
2023-05-07T04:45:11.370Z,6.78
2023-05-07T04:47:38.540Z,6.78
2023-05-07T04:50:07.161Z,6.77
2023-05-07T04:52:34.232Z,6.75
2023-05-07T04:55:01.767Z,6.75
2023-05-07T04:57:30.696Z,6.76
2023-05-07T04:59:58.132Z,6.76
2023-05-07T05:02:24.830Z,6.78
2023-05-07T05:04:51.804Z,6.79
2023-05-07T05:07:18.988Z,6.79
2023-05-07T05:09:45.991Z,6.80
2023-05-07T05:12:12.827Z,6.81
2023-05-07T05:14:39.758Z,6.82
2023-05-07T05:17:07.396Z,6.83
2023-05-07T05:19:36.334Z,6.84
2023-05-07T05:22:04.806Z,6.85
2023-05-07T05:24:32.211Z,6.88
2023-05-07T05:27:02.278Z,6.90
2023-05-07T05:29:29.791Z,6.91
2023-05-07T05:31:56.691Z,6.92
2023-05-07T05:34:24.431Z,6.94
2023-05-07T05:36:51.835Z,6.97
2023-05-07T05:39:20.115Z,7.00
2023-05-07T05:41:46.939Z,7.04
2023-05-07T05:44:14.120Z,7.08
2023-05-07T05:46:41.609Z,7.13
2023-05-07T05:49:08.639Z,7.20
2023-05-07T05:51:35.383Z,7.28
2023-05-07T05:54:02.135Z,7.34
2023-05-07T05:56:29.025Z,7.40
2023-05-07T05:58:55.763Z,7.47
2023-05-07T06:01:22.552Z,7.53
2023-05-07T06:03:50.215Z,7.59
2023-05-07T06:06:17.712Z,7.65
2023-05-07T06:08:44.953Z,7.69
2023-05-07T06:11:13.543Z,7.75
2023-05-07T06:13:40.868Z,7.77
2023-05-07T06:16:08.042Z,7.80
2023-05-07T06:18:37.148Z,7.80
2023-05-07T06:21:04.000Z,7.81
2023-05-07T06:23:31.730Z,7.82
2023-05-07T06:25:59.637Z,7.83
2023-05-07T06:28:31.930Z,7.84
2023-05-07T06:31:12.526Z,7.86
2023-05-07T06:33:39.639Z,7.87
2023-05-07T06:36:07.092Z,7.89
2023-05-07T06:38:33.996Z,7.94
2023-05-07T06:41:00.735Z,7.97
2023-05-07T06:43:27.539Z,7.99
2023-05-07T06:45:56.922Z,8.04
2023-05-07T06:48:24.010Z,8.06
2023-05-07T06:50:58.677Z,8.09
2023-05-07T06:53:26.855Z,8.13
2023-05-07T06:55:53.936Z,8.18
2023-05-07T06:58:20.808Z,8.23
2023-05-07T07:00:48.223Z,8.28
2023-05-07T07:03:14.993Z,8.34
2023-05-07T07:05:42.698Z,8.41
2023-05-07T07:08:09.603Z,8.47
2023-05-07T07:10:37.190Z,8.54
2023-05-07T07:13:04.174Z,8.61
2023-05-07T07:15:31.170Z,8.69
2023-05-07T07:17:58.567Z,8.78
2023-05-07T07:20:25.874Z,8.84
2023-05-07T07:22:52.791Z,8.90
2023-05-07T07:25:19.540Z,8.95
2023-05-07T07:27:46.669Z,8.96
2023-05-07T07:30:13.869Z,8.98
2023-05-07T07:32:42.212Z,8.99
2023-05-07T07:35:09.485Z,9.01
2023-05-07T07:37:36.614Z,9.01
2023-05-07T07:40:04.759Z,9.01
2023-05-07T07:42:32.410Z,9.02
2023-05-07T07:44:59.617Z,9.03
2023-05-07T07:47:27.568Z,9.03
2023-05-07T07:49:54.232Z,9.05
2023-05-07T07:52:21.088Z,9.05
2023-05-07T07:54:48.034Z,9.05
2023-05-07T07:57:14.851Z,9.08
2023-05-07T07:59:44.218Z,9.08
2023-05-07T08:02:11.428Z,9.09
2023-05-07T08:04:38.857Z,9.09
2023-05-07T08:07:06.838Z,9.10
2023-05-07T08:09:35.275Z,9.14
2023-05-07T08:12:02.478Z,9.18
2023-05-07T08:14:30.042Z,9.23
2023-05-07T08:16:57.251Z,9.28
2023-05-07T08:19:24.301Z,9.34
2023-05-07T08:21:51.814Z,9.38
2023-05-07T08:24:18.934Z,9.42
2023-05-07T08:26:47.749Z,9.44
2023-05-07T08:29:15.139Z,9.46
2023-05-07T08:31:42.058Z,9.50
2023-05-07T08:34:10.064Z,9.54
2023-05-07T08:36:38.701Z,9.58
2023-05-07T08:39:05.422Z,9.61
2023-05-07T08:41:32.299Z,9.61
2023-05-07T08:44:00.986Z,9.61
2023-05-07T08:46:28.054Z,9.60
2023-05-07T08:48:55.985Z,9.58
2023-05-07T08:51:23.165Z,9.56
2023-05-07T08:53:50.916Z,9.55
2023-05-07T08:56:22.823Z,9.55
2023-05-07T08:58:50.447Z,9.56
2023-05-07T09:01:18.069Z,9.57
2023-05-07T09:03:46.985Z,9.59
2023-05-07T09:06:14.553Z,9.60
2023-05-07T09:08:41.848Z,9.63
2023-05-07T09:11:09.368Z,9.63
2023-05-07T09:13:37.608Z,9.60
2023-05-07T09:16:13.279Z,9.60
2023-05-07T09:18:45.007Z,9.60
2023-05-07T09:21:18.116Z,9.62
2023-05-07T09:23:45.356Z,9.65
2023-05-07T09:26:15.327Z,9.67
2023-05-07T09:28:42.787Z,9.66
2023-05-07T09:31:11.327Z,9.66
2023-05-07T09:33:39.093Z,9.66
2023-05-07T09:36:08.395Z,9.67
2023-05-07T09:38:35.864Z,9.69
2023-05-07T09:41:06.848Z,9.71
2023-05-07T09:43:37.630Z,9.72
2023-05-07T09:46:07.878Z,9.73
2023-05-07T09:48:37.776Z,9.76
2023-05-07T09:51:04.619Z,9.79
2023-05-07T09:53:32.325Z,9.81
2023-05-07T09:55:59.772Z,9.86
2023-05-07T09:58:27.108Z,9.92
2023-05-07T10:00:54.986Z,9.94
2023-05-07T10:03:21.930Z,9.93
2023-05-07T10:05:55.810Z,9.93
2023-05-07T10:08:22.807Z,9.96
2023-05-07T10:10:52.763Z,9.96
2023-05-07T10:13:22.523Z,9.96
2023-05-07T10:15:51.553Z,10.00
2023-05-07T10:18:18.502Z,10.06
2023-05-07T10:20:47.649Z,10.15
2023-05-07T10:23:16.474Z,10.24
2023-05-07T10:25:45.040Z,10.28
2023-05-07T10:28:17.271Z,10.29
2023-05-07T10:31:03.273Z,10.35
2023-05-07T10:33:35.796Z,10.44
2023-05-07T10:36:05.531Z,10.52
2023-05-07T10:38:32.757Z,10.59
2023-05-07T10:41:00.319Z,10.59
2023-05-07T10:43:27.678Z,10.60
2023-05-07T10:46:15.756Z,10.59
2023-05-07T10:49:01.485Z,10.58
2023-05-07T10:51:31.530Z,10.58
2023-05-07T10:54:10.755Z,10.56
2023-05-07T10:56:39.088Z,10.56
2023-05-07T10:59:22.026Z,10.57
2023-05-07T11:01:53.442Z,10.57
2023-05-07T11:04:28.840Z,10.60
2023-05-07T11:07:28.071Z,10.60
2023-05-07T11:10:02.618Z,10.59
2023-05-07T11:12:44.565Z,10.59
2023-05-07T11:15:18.459Z,10.62
2023-05-07T11:17:56.381Z,10.64
2023-05-07T11:20:52.576Z,10.63
2023-05-07T11:23:36.757Z,10.56
2023-05-07T11:26:21.563Z,10.52
2023-05-07T11:28:48.751Z,10.51
2023-05-07T11:31:17.565Z,10.53
2023-05-07T11:33:44.879Z,10.54
2023-05-07T11:36:13.769Z,10.56
2023-05-07T11:38:45.006Z,10.58
2023-05-07T11:41:11.702Z,10.58
2023-05-07T11:43:40.920Z,10.61
2023-05-07T11:46:10.035Z,10.67
2023-05-07T11:48:37.331Z,10.72
2023-05-07T11:51:07.581Z,10.75
2023-05-07T11:53:41.465Z,10.75
2023-05-07T11:56:12.684Z,10.75
2023-05-07T11:58:41.378Z,10.74
2023-05-07T12:01:09.232Z,10.74
2023-05-07T12:03:38.595Z,10.76
2023-05-07T12:06:08.677Z,10.75
2023-05-07T12:08:37.869Z,10.74
2023-05-07T12:11:04.633Z,10.72
2023-05-07T12:13:32.014Z,10.71
2023-05-07T12:15:59.018Z,10.70
2023-05-07T12:18:26.130Z,10.71
2023-05-07T12:20:52.788Z,10.73
2023-05-07T12:23:19.848Z,10.76
2023-05-07T12:25:49.436Z,10.80
2023-05-07T12:28:17.228Z,10.80
2023-05-07T12:30:45.018Z,10.78
2023-05-07T12:33:12.065Z,10.79
2023-05-07T12:35:42.536Z,10.81
2023-05-07T12:38:10.391Z,10.83
2023-05-07T12:40:41.596Z,10.82
2023-05-07T12:43:08.488Z,10.83
2023-05-07T12:45:39.968Z,10.86
2023-05-07T12:48:06.960Z,10.87
2023-05-07T12:50:36.703Z,10.88
2023-05-07T12:53:07.420Z,10.90
2023-05-07T12:55:42.534Z,10.92
2023-05-07T12:58:09.353Z,10.93
2023-05-07T13:00:39.523Z,10.94
2023-05-07T13:03:06.495Z,10.96
2023-05-07T13:05:33.332Z,10.98
2023-05-07T13:08:00.011Z,11.01
2023-05-07T13:10:26.771Z,10.99
2023-05-07T13:12:53.769Z,10.99
2023-05-07T13:15:20.892Z,10.98
2023-05-07T13:17:47.646Z,10.97
2023-05-07T13:20:14.589Z,10.95
2023-05-07T13:22:41.240Z,10.94
2023-05-07T13:25:08.787Z,10.93
2023-05-07T13:27:38.388Z,10.92
2023-05-07T13:30:06.573Z,10.92
2023-05-07T13:32:33.467Z,10.92
2023-05-07T13:35:00.491Z,10.92
2023-05-07T13:37:27.262Z,10.91
2023-05-07T13:39:54.111Z,10.90
2023-05-07T13:42:20.891Z,10.89
2023-05-07T13:44:47.567Z,10.88
2023-05-07T13:47:14.332Z,10.88
2023-05-07T13:49:41.163Z,10.86
2023-05-07T13:52:07.855Z,10.83
2023-05-07T13:56:24.228Z,10.85
2023-05-07T13:58:59.519Z,10.83
2023-05-07T14:01:27.513Z,10.84
2023-05-07T14:03:54.335Z,10.83
2023-05-07T14:06:21.371Z,10.84
2023-05-07T14:08:49.000Z,10.84
2023-05-07T14:11:15.694Z,10.85
2023-05-07T14:13:42.382Z,10.84
2023-05-07T14:16:09.017Z,10.83
2023-05-07T14:18:37.977Z,10.82
2023-05-07T14:21:07.180Z,10.83
2023-05-07T14:23:33.922Z,10.84
2023-05-07T14:26:00.627Z,10.84
2023-05-07T14:28:27.342Z,10.85
2023-05-07T14:30:54.074Z,10.85
2023-05-07T14:33:20.807Z,10.84
2023-05-07T14:35:49.843Z,10.84
2023-05-07T14:38:16.775Z,10.84
2023-05-07T14:40:43.489Z,10.84
2023-05-07T14:43:10.312Z,10.84
2023-05-07T14:45:37.102Z,10.84
2023-05-07T14:48:04.788Z,10.84
2023-05-07T14:50:31.635Z,10.84
2023-05-07T14:52:58.341Z,10.84
2023-05-07T14:55:25.099Z,10.82
2023-05-07T14:57:54.082Z,10.82
2023-05-07T15:00:21.007Z,10.83
2023-05-07T15:02:47.798Z,10.83
2023-05-07T15:05:15.798Z,10.82
2023-05-07T15:07:42.709Z,10.81
2023-05-07T15:10:09.719Z,10.79
2023-05-07T15:12:36.384Z,10.79
2023-05-07T15:15:03.283Z,10.77
2023-05-07T15:17:30.055Z,10.75
2023-05-07T15:19:56.811Z,10.74
2023-05-07T15:22:23.476Z,10.74
2023-05-07T15:24:50.168Z,10.71
2023-05-07T15:27:18.142Z,10.70
2023-05-07T15:29:44.882Z,10.69
2023-05-07T15:32:12.091Z,10.69
2023-05-07T15:34:38.840Z,10.69
2023-05-07T15:37:05.758Z,10.66
2023-05-07T15:39:32.412Z,10.63
2023-05-07T15:41:59.108Z,10.62
2023-05-07T15:44:29.504Z,10.60
2023-05-07T15:46:56.201Z,10.60
2023-05-07T15:49:23.128Z,10.61
2023-05-07T15:51:51.782Z,10.61
2023-05-07T15:54:21.029Z,10.63
2023-05-07T15:56:48.082Z,10.62
2023-05-07T15:59:16.540Z,10.61
2023-05-07T16:01:43.690Z,10.61
2023-05-07T16:04:10.976Z,10.62
2023-05-07T16:06:37.730Z,10.63
2023-05-07T16:09:04.457Z,10.64
2023-05-07T16:11:31.241Z,10.64
2023-05-07T16:13:59.674Z,10.63
2023-05-07T16:16:29.931Z,10.63
2023-05-07T16:18:57.078Z,10.61
2023-05-07T16:21:23.717Z,10.59
2023-05-07T16:23:53.359Z,10.59
2023-05-07T16:26:20.191Z,10.57
2023-05-07T16:28:46.888Z,10.54
2023-05-07T16:31:13.601Z,10.52
2023-05-07T16:33:40.421Z,10.49
2023-05-07T16:36:07.660Z,10.47
2023-05-07T16:38:34.807Z,10.46
2023-05-07T16:41:01.820Z,10.45
2023-05-07T16:43:28.508Z,10.42
2023-05-07T16:45:55.505Z,10.39
2023-05-07T16:48:22.244Z,10.37
2023-05-07T16:50:48.935Z,10.36
2023-05-07T16:53:15.891Z,10.33
2023-05-07T16:55:42.585Z,10.31
2023-05-07T16:58:11.581Z,10.29
2023-05-07T17:00:49.916Z,10.26
2023-05-07T17:03:18.363Z,10.24
2023-05-07T17:05:45.443Z,10.22
2023-05-07T17:08:13.916Z,10.20
2023-05-07T17:10:41.494Z,10.19
2023-05-07T17:13:08.813Z,10.17
2023-05-07T17:15:35.542Z,10.15
2023-05-07T17:18:02.240Z,10.12
2023-05-07T17:20:29.165Z,10.10
2023-05-07T17:22:55.984Z,10.08
2023-05-07T17:25:23.367Z,10.05
2023-05-07T17:27:50.111Z,10.03
2023-05-07T17:30:17.309Z,10.02
2023-05-07T17:32:44.124Z,10.01
2023-05-07T17:35:10.789Z,9.99
2023-05-07T17:37:37.423Z,9.98
2023-05-07T17:40:05.180Z,9.95
2023-05-07T17:42:32.311Z,9.91
2023-05-07T17:44:59.457Z,9.86
2023-05-07T17:47:26.241Z,9.83
2023-05-07T17:49:53.019Z,9.82
2023-05-07T17:52:19.712Z,9.79
2023-05-07T17:54:46.469Z,9.76
2023-05-07T17:57:13.213Z,9.74
2023-05-07T17:59:40.174Z,9.72
2023-05-07T18:02:06.981Z,9.70
2023-05-07T18:04:33.704Z,9.69
2023-05-07T18:07:00.431Z,9.68
2023-05-07T18:09:27.113Z,9.67
2023-05-07T18:11:54.034Z,9.66
2023-05-07T18:14:24.421Z,9.66
2023-05-07T18:16:51.636Z,9.66
2023-05-07T18:19:18.591Z,9.66
2023-05-07T18:21:45.578Z,9.65
2023-05-07T18:24:12.879Z,9.64
2023-05-07T18:26:39.872Z,9.65
2023-05-07T18:29:06.496Z,9.64
2023-05-07T18:31:34.743Z,9.65
2023-05-07T18:34:03.508Z,9.64
2023-05-07T18:36:30.677Z,9.64
2023-05-07T18:38:57.391Z,9.63
2023-05-07T18:41:24.155Z,9.62
2023-05-07T18:43:50.813Z,9.61
2023-05-07T18:46:17.443Z,9.60
2023-05-07T18:48:44.294Z,9.58
2023-05-07T18:51:12.789Z,9.58
2023-05-07T18:53:40.238Z,9.58
2023-05-07T18:56:07.494Z,9.58
2023-05-07T18:58:34.793Z,9.58
2023-05-07T19:01:01.758Z,9.58
2023-05-07T19:03:28.523Z,9.56
2023-05-07T19:05:55.938Z,9.56
2023-05-07T19:08:22.610Z,9.56
2023-05-07T19:10:49.415Z,9.57
2023-05-07T19:13:16.160Z,9.58
2023-05-07T19:15:42.956Z,9.58
2023-05-07T19:18:09.832Z,9.59
2023-05-07T19:20:36.793Z,9.60
2023-05-07T19:23:03.580Z,9.60
2023-05-07T19:25:30.521Z,9.61
2023-05-07T19:27:57.431Z,9.62
2023-05-07T19:30:24.296Z,9.61
2023-05-07T19:32:51.017Z,9.59
2023-05-07T19:35:17.753Z,9.58
2023-05-07T19:37:44.394Z,9.56
2023-05-07T19:40:11.697Z,9.55
2023-05-07T19:42:38.412Z,9.54
2023-05-07T19:45:05.663Z,9.52
2023-05-07T19:47:32.453Z,9.48
2023-05-07T19:49:59.231Z,9.46
2023-05-07T19:52:26.562Z,9.43
2023-05-07T19:54:53.227Z,9.40
2023-05-07T19:57:19.920Z,9.38
2023-05-07T19:59:46.986Z,9.37
2023-05-07T20:02:13.827Z,9.35
2023-05-07T20:04:40.516Z,9.36
2023-05-07T20:07:07.794Z,9.33
2023-05-07T20:09:34.705Z,9.32
2023-05-07T20:12:01.415Z,9.31
2023-05-07T20:14:28.386Z,9.31
2023-05-07T20:16:55.224Z,9.29
2023-05-07T20:19:22.109Z,9.28
2023-05-07T20:21:48.854Z,9.28
2023-05-07T20:24:16.772Z,9.29
2023-05-07T20:26:43.558Z,9.30
2023-05-07T20:29:10.276Z,9.30
2023-05-07T20:31:37.021Z,9.31
2023-05-07T20:34:03.690Z,9.32
2023-05-07T20:36:30.433Z,9.31
2023-05-07T20:38:57.139Z,9.31
2023-05-07T20:41:25.513Z,9.31
2023-05-07T20:43:52.331Z,9.31
2023-05-07T20:46:22.651Z,9.32
2023-05-07T20:48:50.191Z,9.32
2023-05-07T20:51:17.351Z,9.31
2023-05-07T20:53:46.015Z,9.31
2023-05-07T20:56:14.145Z,9.31
2023-05-07T20:58:40.880Z,9.31
2023-05-07T21:01:07.931Z,9.30
2023-05-07T21:03:34.688Z,9.31
2023-05-07T21:06:01.515Z,9.29
2023-05-07T21:08:28.184Z,9.28
2023-05-07T21:10:55.010Z,9.27
2023-05-07T21:13:21.958Z,9.28
2023-05-07T21:15:48.851Z,9.28
2023-05-07T21:18:16.184Z,9.28
2023-05-07T21:20:42.816Z,9.29
2023-05-07T21:23:09.526Z,9.29
2023-05-07T21:25:41.025Z,9.29
2023-05-07T21:28:08.242Z,9.29
2023-05-07T21:30:35.438Z,9.29
2023-05-07T21:33:02.115Z,9.28
2023-05-07T21:35:28.827Z,9.28
2023-05-07T21:37:55.585Z,9.29
2023-05-07T21:40:22.362Z,9.30
2023-05-07T21:42:49.031Z,9.31
2023-05-07T21:45:15.777Z,9.31
2023-05-07T21:47:42.467Z,9.32
2023-05-07T21:50:09.648Z,9.33
2023-05-07T21:52:36.477Z,9.34
2023-05-07T21:55:03.764Z,9.35
2023-05-07T21:57:30.414Z,9.35
2023-05-07T21:59:57.123Z,9.35
2023-05-07T22:02:23.885Z,9.35
2023-05-07T22:04:50.633Z,9.36
2023-05-07T22:07:17.326Z,9.37
2023-05-07T22:09:44.071Z,9.38
2023-05-07T22:12:11.324Z,9.38
2023-05-07T22:14:37.962Z,9.38
2023-05-07T22:17:04.601Z,9.37
2023-05-07T22:19:31.358Z,9.34
2023-05-07T22:21:58.005Z,9.33
2023-05-07T22:24:24.641Z,9.33
2023-05-07T22:26:51.345Z,9.33
2023-05-07T22:29:18.144Z,9.32
2023-05-07T22:31:44.892Z,9.30
2023-05-07T22:34:11.633Z,9.27
2023-05-07T22:36:38.327Z,9.25
2023-05-07T22:39:07.123Z,9.24
2023-05-07T22:41:33.872Z,9.21
2023-05-07T22:44:00.973Z,9.20
2023-05-07T22:46:27.821Z,9.18
2023-05-07T22:48:54.605Z,9.16
2023-05-07T22:51:21.705Z,9.12
2023-05-07T22:53:48.414Z,9.08
2023-05-07T22:56:15.928Z,9.04
2023-05-07T22:58:42.679Z,9.00
2023-05-07T23:01:13.903Z,8.95
2023-05-07T23:03:41.133Z,8.91
2023-05-07T23:06:08.039Z,8.87
2023-05-07T23:08:35.222Z,8.85
2023-05-07T23:11:02.031Z,8.83
2023-05-07T23:13:28.777Z,8.84
2023-05-07T23:15:55.614Z,8.84
2023-05-07T23:18:22.354Z,8.83
2023-05-07T23:20:48.987Z,8.80
2023-05-07T23:23:15.611Z,8.76
2023-05-07T23:25:42.355Z,8.71
2023-05-07T23:28:09.049Z,8.69
2023-05-07T23:30:36.009Z,8.67
2023-05-07T23:33:02.961Z,8.66
2023-05-07T23:35:29.741Z,8.64
2023-05-07T23:37:56.358Z,8.63
2023-05-07T23:40:23.053Z,8.62
2023-05-07T23:42:49.801Z,8.62
2023-05-07T23:45:16.452Z,8.61
2023-05-07T23:47:43.136Z,8.61
2023-05-07T23:50:10.581Z,8.60
2023-05-07T23:52:37.531Z,8.59
2023-05-07T23:55:04.881Z,8.58
2023-05-07T23:57:31.541Z,8.57
